createdAt,value
2023-05-14T00:00:11.217Z,100.00
2023-05-14T00:04:33.653Z,100.00
2023-05-14T00:08:35.790Z,100.00
2023-05-14T00:12:37.803Z,100.00
2023-05-14T00:16:39.849Z,100.00
2023-05-14T00:20:42.093Z,100.00
2023-05-14T00:24:43.802Z,100.00
2023-05-14T00:28:45.957Z,100.00
2023-05-14T00:32:47.966Z,100.00
2023-05-14T00:36:51.245Z,100.00
2023-05-14T00:40:53.378Z,100.00
2023-05-14T00:44:55.560Z,100.00
2023-05-14T00:48:59.055Z,100.00
2023-05-14T00:53:01.391Z,100.00
2023-05-14T00:57:04.884Z,100.00
2023-05-14T01:01:06.994Z,100.00
2023-05-14T01:05:09.476Z,100.00
2023-05-14T01:09:18.840Z,100.00
2023-05-14T01:13:36.772Z,100.00
2023-05-14T01:17:46.993Z,100.00
2023-05-14T01:21:48.944Z,100.00
2023-05-14T01:25:51.126Z,100.00
2023-05-14T01:30:08.650Z,100.00
2023-05-14T01:34:12.718Z,100.00
2023-05-14T01:38:17.941Z,100.00
2023-05-14T01:42:20.733Z,100.00
2023-05-14T01:46:24.718Z,100.00
2023-05-14T01:50:26.758Z,100.00
2023-05-14T01:54:28.992Z,100.00
2023-05-14T01:58:31.043Z,100.00
2023-05-14T02:02:33.191Z,100.00
2023-05-14T02:06:35.269Z,100.00
2023-05-14T02:10:37.255Z,100.00
2023-05-14T02:14:39.375Z,100.00
2023-05-14T02:18:41.493Z,100.00
2023-05-14T02:22:46.161Z,100.00
2023-05-14T02:26:48.142Z,100.00
2023-05-14T02:30:50.149Z,100.00
2023-05-14T02:34:52.433Z,100.00
2023-05-14T02:38:54.454Z,100.00
2023-05-14T02:42:57.253Z,100.00
2023-05-14T02:46:59.300Z,100.00
2023-05-14T02:51:02.802Z,100.00
2023-05-14T02:55:05.370Z,100.00
2023-05-14T02:59:07.431Z,100.00
2023-05-14T03:03:10.108Z,100.00
2023-05-14T03:07:12.730Z,100.00
2023-05-14T03:11:14.743Z,100.00
2023-05-14T03:15:17.025Z,100.00
2023-05-14T03:19:19.366Z,100.00
2023-05-14T03:23:21.381Z,100.00
2023-05-14T03:27:23.608Z,100.00
2023-05-14T03:31:26.476Z,100.00
2023-05-14T03:35:31.608Z,100.00
2023-05-14T03:39:33.908Z,100.00
2023-05-14T03:43:36.176Z,100.00
2023-05-14T03:47:38.242Z,100.00
2023-05-14T03:51:41.173Z,100.00
2023-05-14T03:55:43.137Z,100.00
2023-05-14T03:59:46.689Z,100.00
2023-05-14T04:03:48.791Z,100.00
2023-05-14T04:07:52.528Z,100.00
2023-05-14T04:11:55.578Z,100.00
2023-05-14T04:15:57.801Z,100.00
2023-05-14T04:19:59.808Z,100.00
2023-05-14T04:24:01.947Z,100.00
2023-05-14T04:28:04.054Z,100.00
2023-05-14T04:32:06.717Z,100.00
2023-05-14T04:36:08.874Z,100.00
2023-05-14T04:40:11.358Z,100.00
2023-05-14T04:44:13.753Z,100.00
2023-05-14T04:48:15.809Z,100.00
2023-05-14T04:52:17.782Z,100.00
2023-05-14T04:56:19.914Z,100.00
2023-05-14T05:00:22.507Z,100.00
2023-05-14T05:04:25.099Z,100.00
2023-05-14T05:08:27.082Z,100.00
2023-05-14T05:12:30.388Z,100.00
2023-05-14T05:16:32.498Z,100.00
2023-05-14T05:20:34.635Z,100.00
2023-05-14T05:24:36.572Z,100.00
2023-05-14T05:28:38.580Z,100.00
2023-05-14T05:32:40.707Z,100.00
2023-05-14T05:36:42.794Z,100.00
2023-05-14T05:40:45.045Z,100.00
2023-05-14T05:44:48.264Z,100.00
2023-05-14T05:48:50.248Z,100.00
2023-05-14T05:52:52.714Z,100.00
2023-05-14T05:56:54.701Z,100.00
2023-05-14T06:00:57.750Z,100.00
2023-05-14T06:04:59.805Z,100.00
2023-05-14T06:09:02.103Z,100.00
2023-05-14T06:13:03.745Z,100.00
2023-05-14T06:17:05.860Z,100.00
2023-05-14T06:21:07.811Z,100.00
2023-05-14T06:25:10.468Z,100.00
2023-05-14T06:29:12.587Z,100.00
2023-05-14T06:33:15.076Z,100.00
2023-05-14T06:37:17.080Z,100.00
2023-05-14T06:41:19.154Z,89.43
2023-05-14T06:45:21.148Z,88.83
2023-05-14T06:49:23.337Z,94.92
2023-05-14T06:53:25.357Z,81.29
2023-05-14T06:57:27.399Z,93.36
2023-05-14T07:01:30.385Z,72.83
2023-05-14T07:05:32.521Z,59.00
2023-05-14T07:09:34.597Z,60.67
2023-05-14T07:13:36.637Z,61.21
2023-05-14T07:17:38.672Z,55.66
2023-05-14T07:21:40.858Z,59.18
2023-05-14T07:25:42.806Z,60.60
2023-05-14T07:29:45.148Z,49.41
2023-05-14T07:33:47.140Z,53.05
2023-05-14T07:37:49.361Z,54.54
2023-05-14T07:41:51.439Z,51.93
2023-05-14T07:45:53.556Z,45.10
2023-05-14T07:49:56.588Z,48.73
2023-05-14T07:53:58.884Z,41.85
2023-05-14T07:58:00.854Z,44.75
2023-05-14T08:02:03.116Z,42.86
2023-05-14T08:06:05.793Z,41.48
2023-05-14T08:10:08.571Z,44.09
2023-05-14T08:14:10.613Z,43.88
2023-05-14T08:18:12.857Z,45.68
2023-05-14T08:22:15.193Z,41.82
2023-05-14T08:26:17.270Z,42.29
2023-05-14T08:30:19.436Z,42.57
2023-05-14T08:34:22.353Z,43.25
2023-05-14T08:38:24.411Z,44.17
2023-05-14T08:42:27.040Z,42.89
2023-05-14T08:46:31.849Z,39.63
2023-05-14T08:50:33.955Z,40.25
2023-05-14T08:54:36.145Z,39.14
2023-05-14T08:58:38.531Z,42.81
2023-05-14T09:02:41.671Z,39.86
2023-05-14T09:06:46.404Z,40.15
2023-05-14T09:10:48.396Z,39.13
2023-05-14T09:14:51.219Z,39.21
2023-05-14T09:18:53.333Z,37.93
2023-05-14T09:22:55.552Z,40.76
2023-05-14T09:26:58.440Z,37.38
2023-05-14T09:31:02.120Z,40.34
2023-05-14T09:35:18.568Z,38.44
2023-05-14T09:39:22.332Z,36.55
2023-05-14T09:43:24.463Z,36.55
2023-05-14T09:47:26.696Z,37.79
2023-05-14T09:51:31.969Z,39.24
2023-05-14T09:55:34.009Z,35.20
2023-05-14T09:59:36.021Z,40.88
2023-05-14T10:03:38.314Z,35.90
2023-05-14T10:07:44.565Z,36.81
2023-05-14T10:11:53.313Z,38.72
2023-05-14T10:16:07.621Z,33.80
2023-05-14T10:20:14.920Z,34.23
2023-05-14T10:24:17.966Z,33.89
2023-05-14T10:28:20.287Z,33.81
2023-05-14T10:32:26.523Z,34.45
2023-05-14T10:36:28.976Z,35.27
2023-05-14T10:40:31.845Z,39.33
2023-05-14T10:44:35.736Z,37.33
2023-05-14T10:48:41.769Z,34.48
2023-05-14T10:52:45.277Z,34.94
2023-05-14T10:56:47.298Z,34.57
2023-05-14T11:00:54.568Z,34.46
2023-05-14T11:04:59.380Z,40.79
2023-05-14T11:09:02.059Z,39.39
2023-05-14T11:13:04.170Z,37.16
2023-05-14T11:17:06.371Z,38.20
2023-05-14T11:21:08.510Z,35.99
2023-05-14T11:25:14.564Z,38.09
2023-05-14T11:29:16.950Z,33.30
2023-05-14T11:33:19.755Z,35.96
2023-05-14T11:37:21.832Z,35.87
2023-05-14T11:41:23.980Z,37.35
2023-05-14T11:45:27.480Z,35.54
2023-05-14T11:49:29.978Z,34.82
2023-05-14T11:53:32.435Z,32.65
2023-05-14T11:57:35.402Z,34.85
2023-05-14T12:01:38.550Z,36.98
2023-05-14T12:05:40.784Z,36.05
2023-05-14T12:09:51.691Z,37.15
2023-05-14T12:13:53.900Z,32.46
2023-05-14T12:17:55.945Z,34.64
2023-05-14T12:22:01.013Z,34.04
2023-05-14T12:26:08.110Z,33.10
2023-05-14T12:30:20.684Z,33.98
2023-05-14T12:34:37.483Z,32.61
2023-05-14T12:38:41.315Z,33.25
2023-05-14T12:42:43.436Z,34.53
2023-05-14T12:46:45.980Z,34.67
2023-05-14T12:50:48.780Z,34.03
2023-05-14T12:54:50.588Z,36.36
2023-05-14T12:58:52.542Z,33.27
2023-05-14T13:02:54.855Z,34.82
2023-05-14T13:06:56.949Z,36.72
2023-05-14T13:10:58.996Z,33.85
2023-05-14T13:15:01.122Z,35.79
2023-05-14T13:19:03.281Z,34.84
2023-05-14T13:23:05.330Z,34.15
2023-05-14T13:27:07.403Z,37.83
2023-05-14T13:31:11.860Z,35.40
2023-05-14T13:35:14.303Z,33.67
2023-05-14T13:39:16.362Z,37.04
2023-05-14T13:43:18.631Z,37.47
2023-05-14T13:47:20.736Z,32.32
2023-05-14T13:51:23.405Z,31.81
2023-05-14T13:55:26.021Z,32.62
2023-05-14T13:59:28.157Z,32.35
2023-05-14T14:03:30.235Z,32.60
2023-05-14T14:07:32.425Z,32.16
2023-05-14T14:11:34.409Z,31.98
2023-05-14T14:15:36.883Z,31.52
2023-05-14T14:19:38.845Z,31.09
2023-05-14T14:23:40.873Z,30.82
2023-05-14T14:27:42.924Z,33.78
2023-05-14T14:31:44.961Z,31.94
2023-05-14T14:35:47.001Z,31.21
2023-05-14T14:39:49.109Z,31.86
2023-05-14T14:43:51.130Z,31.56
2023-05-14T14:48:31.553Z,32.51
2023-05-14T14:52:33.955Z,33.22
2023-05-14T14:56:36.405Z,34.90
2023-05-14T15:00:40.228Z,34.68
2023-05-14T15:04:42.290Z,34.04
2023-05-14T15:08:44.372Z,32.80
2023-05-14T15:12:46.455Z,32.31
2023-05-14T15:16:50.809Z,33.17
2023-05-14T15:20:53.367Z,34.44
2023-05-14T15:24:55.373Z,32.67
2023-05-14T15:28:58.956Z,35.09
2023-05-14T15:33:01.119Z,32.42
2023-05-14T15:37:03.149Z,33.30
2023-05-14T15:41:05.486Z,33.35
2023-05-14T15:45:08.276Z,35.50
2023-05-14T15:49:10.866Z,35.12
2023-05-14T15:53:12.958Z,33.92
2023-05-14T15:57:16.360Z,33.64
2023-05-14T16:01:20.010Z,36.64
2023-05-14T16:05:22.157Z,36.16
2023-05-14T16:09:24.152Z,35.72
2023-05-14T16:13:26.113Z,36.14
2023-05-14T16:17:28.522Z,36.94
2023-05-14T16:21:31.924Z,37.26
2023-05-14T16:25:34.076Z,38.18
2023-05-14T16:29:36.248Z,35.99
2023-05-14T16:33:37.916Z,37.35
2023-05-14T16:37:39.891Z,36.82
2023-05-14T16:41:42.080Z,36.81
2023-05-14T16:45:44.098Z,36.85
2023-05-14T16:49:46.215Z,36.31
2023-05-14T16:53:48.298Z,38.54
2023-05-14T16:57:50.317Z,38.73
2023-05-14T17:01:52.347Z,39.26
2023-05-14T17:05:54.494Z,39.28
2023-05-14T17:09:58.062Z,39.16
2023-05-14T17:14:00.114Z,39.67
2023-05-14T17:18:01.864Z,40.64
2023-05-14T17:22:05.894Z,42.61
2023-05-14T17:26:08.584Z,42.09
2023-05-14T17:30:11.022Z,41.10
2023-05-14T17:34:13.006Z,42.22
2023-05-14T17:38:15.063Z,43.76
2023-05-14T17:42:17.346Z,43.77
2023-05-14T17:46:19.940Z,44.10
2023-05-14T17:50:22.029Z,45.01
2023-05-14T17:54:24.143Z,47.25
2023-05-14T17:58:26.223Z,46.83
2023-05-14T18:02:28.273Z,48.43
2023-05-14T18:06:30.950Z,49.01
2023-05-14T18:10:33.078Z,50.21
2023-05-14T18:14:35.183Z,52.81
2023-05-14T18:18:37.322Z,55.52
2023-05-14T18:22:39.058Z,58.75
2023-05-14T18:26:41.138Z,67.97
2023-05-14T18:30:43.553Z,74.36
2023-05-14T18:34:45.752Z,82.35
2023-05-14T18:38:47.796Z,89.86
2023-05-14T18:42:49.883Z,100.00
2023-05-14T18:46:52.691Z,100.00
2023-05-14T18:50:54.741Z,100.00
2023-05-14T18:54:56.888Z,100.00
2023-05-14T18:58:58.950Z,100.00
2023-05-14T19:03:00.988Z,100.00
2023-05-14T19:07:03.162Z,100.00
2023-05-14T19:11:05.198Z,100.00
2023-05-14T19:15:08.017Z,100.00
2023-05-14T19:19:10.340Z,100.00
2023-05-14T19:23:12.749Z,100.00
2023-05-14T19:27:16.579Z,100.00
2023-05-14T19:31:18.754Z,100.00
2023-05-14T19:35:20.874Z,100.00
2023-05-14T19:39:22.944Z,100.00
2023-05-14T19:43:26.072Z,100.00
2023-05-14T19:47:28.845Z,100.00
2023-05-14T19:51:30.927Z,100.00
2023-05-14T19:55:32.997Z,100.00
2023-05-14T19:59:35.212Z,100.00
2023-05-14T20:03:37.599Z,100.00
2023-05-14T20:07:40.477Z,100.00
2023-05-14T20:11:42.697Z,100.00
2023-05-14T20:15:45.287Z,100.00
2023-05-14T20:19:47.534Z,100.00
2023-05-14T20:23:49.546Z,100.00
2023-05-14T20:27:52.542Z,100.00
2023-05-14T20:31:54.555Z,100.00
2023-05-14T20:35:56.763Z,100.00
2023-05-14T20:40:00.508Z,100.00
2023-05-14T20:44:02.654Z,100.00
2023-05-14T20:48:09.787Z,100.00
2023-05-14T20:52:15.840Z,100.00
2023-05-14T20:56:17.834Z,100.00
2023-05-14T21:00:20.128Z,100.00
2023-05-14T21:04:22.270Z,100.00
2023-05-14T21:08:24.699Z,100.00
2023-05-14T21:12:26.689Z,100.00
2023-05-14T21:16:29.917Z,100.00
2023-05-14T21:20:32.211Z,100.00
2023-05-14T21:24:34.331Z,100.00
2023-05-14T21:28:36.252Z,100.00
2023-05-14T21:32:38.490Z,100.00
2023-05-14T21:36:40.703Z,100.00
2023-05-14T21:40:42.879Z,100.00
2023-05-14T21:44:44.931Z,100.00
2023-05-14T21:48:47.119Z,100.00
2023-05-14T21:52:49.199Z,100.00
2023-05-14T21:56:51.519Z,100.00
2023-05-14T22:00:53.540Z,100.00
2023-05-14T22:04:55.746Z,100.00
2023-05-14T22:08:57.861Z,100.00
2023-05-14T22:12:59.902Z,100.00
2023-05-14T22:17:01.932Z,100.00
2023-05-14T22:21:04.139Z,100.00
2023-05-14T22:25:06.550Z,100.00
2023-05-14T22:29:08.697Z,100.00
2023-05-14T22:33:10.968Z,100.00
2023-05-14T22:37:13.050Z,100.00
2023-05-14T22:41:17.397Z,100.00
2023-05-14T22:45:19.537Z,100.00
2023-05-14T22:49:21.494Z,100.00
2023-05-14T22:53:25.058Z,100.00
2023-05-14T22:57:27.399Z,100.00
2023-05-14T23:01:30.644Z,100.00
2023-05-14T23:05:32.762Z,100.00
2023-05-14T23:09:34.825Z,100.00
2023-05-14T23:13:37.015Z,100.00
2023-05-14T23:17:39.858Z,100.00
2023-05-14T23:21:42.061Z,100.00
2023-05-14T23:25:44.323Z,100.00
2023-05-14T23:29:46.347Z,100.00
2023-05-14T23:33:48.366Z,100.00
2023-05-14T23:37:51.064Z,100.00
2023-05-14T23:41:53.138Z,100.00
2023-05-14T23:45:55.416Z,100.00
2023-05-14T23:49:57.598Z,100.00
2023-05-14T23:53:59.617Z,100.00
2023-05-14T23:58:01.782Z,100.00
